Gillette, WY

4:50 AM MDT on August 28, 2014 (GMT -0600)
RAWS ECHETA WY US | Change Station
CLOSE
Current Station
Personal Weather Station
Location: Gillette, WY
Elevation: 4396 ft
Nearby Weather Stations

Elev 4396 ft 44.47 °N, 105.84 °W | Updated 59 minutes ago

Partly Cloudy
Partly Cloudy
57 °F
Feels Like 57 °F
N
5
Wind Variable Wind from South
Gusts 8.0 mph

Today
High -- | Low -- °F
--% Chance of Precip.
Yesterday
High -- | Low -- °F
Precip. -- in
6:20 AM 7:46 PM
Waxing Crescent, 7% visible
Pressure 29.94 in
Visibility 10.0 miles
Clouds Clear
Dew Point 53 °F
Humidity 86%
Rainfall 0.00 in
Snow Depth Not available.
UV 0 out of 12
Pollen 8.30 out of 12
Air Quality Not available.
Flu Activity Not available.
METAR KGCC 280953Z AUTO 00000KT 10SM CLR 14/11 A3006 RMK AO2 SLP139 T01390111

More Conditions Fewer Conditions

Pressure 29.94 in
Visibility 10.0 miles
Clouds Clear
Dew Point 53 °F
Humidity 86%
Rainfall 0.00 in
Snow Depth Not available.
UV 0 out of 12
Pollen 8.30 out of 12
Air Quality Not available.
Flu Activity Not available.
METAR KGCC 280953Z AUTO 00000KT 10SM CLR 14/11 A3006 RMK AO2 SLP139 T01390111

More Conditions Fewer Conditions

10-Day Weather Forecast

Almanac

Astronomy

Aug. 28, 2014 Rise Set
Actual Time 6:20 AM MDT 7:46 PM MDT
Civil Twilight 5:50 AM MDT 8:16 PM MDT
Nautical Twilight 5:13 AM MDT 8:53 PM MDT
Astronomical Twilight 4:34 AM MDT 9:32 PM MDT
Moon 9:24 AM MDT 9:02 PM MDT
Length of Visible Light 14h 26m
Length of Day
13h 25m
Tomorrow will be 2m 57s shorter.
Waxing Crescent, 7% of the Moon is Illuminated
Today
Waxing Crescent
Sep 2
First Quarter
Sep 8
Full
Sep 15
Last Quarter
Sep 24
New

Today's Extremes

State Highs State Lows

Community

WunderPhotos

Upload Photos

1,747,920 photos uploaded!

Nearby

Snow Depth

Station Depth Elevation
Casper Mountain 1 in 7850 ft
Reno Hill 0 in 8500 ft
Sand Lake 0 in 10050 ft
Sylvan Lake 0 in 8420 ft
Brooklyn Lake 0 in 10220 ft

Earthquake Activity

City Distance Mag. Time & Date
No recent earthquake activity has been reported nearby.
Minimum magnitude displayed is 2.5.

Coastal Water Temperatures

Place Temperature
No Stations Reporting

Nearby Weather Stations